sensor_id;sensor_type;location;lat;lon;timestamp;pressure;altitude;pressure_sealevel;temperature;humidity
75438;BME280;64015;49.392;15.582;2023-01-05T00:01:50;95613.47;;;6.76;100.00
75438;BME280;64015;49.392;15.582;2023-01-05T00:04:16;95602.31;;;6.86;100.00
75438;BME280;64015;49.392;15.582;2023-01-05T00:06:42;95618.53;;;6.83;100.00
75438;BME280;64015;49.392;15.582;2023-01-05T00:09:10;95622.19;;;6.82;100.00
75438;BME280;64015;49.392;15.582;2023-01-05T00:11:36;95617.53;;;6.89;100.00
75438;BME280;64015;49.392;15.582;2023-01-05T00:14:23;95634.91;;;6.95;100.00
75438;BME280;64015;49.392;15.582;2023-01-05T00:17:13;95630.25;;;7.02;100.00
75438;BME280;64015;49.392;15.582;2023-01-05T00:19:58;95629.25;;;7.08;100.00
75438;BME280;64015;49.392;15.582;2023-01-05T00:22:55;95631.44;;;7.16;100.00
75438;BME280;64015;49.392;15.582;2023-01-05T00:25:25;95628.81;;;7.16;100.00
75438;BME280;64015;49.392;15.582;2023-01-05T00:27:51;95617.13;;;7.29;100.00
75438;BME280;64015;49.392;15.582;2023-01-05T00:30:24;95619.78;;;7.34;100.00
75438;BME280;64015;49.392;15.582;2023-01-05T00:32:50;95608.53;;;7.38;100.00
75438;BME280;64015;49.392;15.582;2023-01-05T00:35:16;95601.66;;;7.32;100.00
75438;BME280;64015;49.392;15.582;2023-01-05T00:37:42;95603.25;;;7.33;100.00
75438;BME280;64015;49.392;15.582;2023-01-05T00:40:10;95606.72;;;7.39;100.00
75438;BME280;64015;49.392;15.582;2023-01-05T00:42:36;95593.94;;;7.53;100.00
75438;BME280;64015;49.392;15.582;2023-01-05T00:45:04;95603.31;;;7.43;100.00
75438;BME280;64015;49.392;15.582;2023-01-05T00:47:30;95562.66;;;7.41;100.00
75438;BME280;64015;49.392;15.582;2023-01-05T00:49:56;95591.06;;;7.54;100.00
75438;BME280;64015;49.392;15.582;2023-01-05T00:52:21;95594.00;;;7.58;100.00
75438;BME280;64015;49.392;15.582;2023-01-05T00:54:47;95587.09;;;7.46;100.00
75438;BME280;64015;49.392;15.582;2023-01-05T00:57:13;95582.63;;;7.47;100.00
75438;BME280;64015;49.392;15.582;2023-01-05T00:59:39;95588.19;;;7.56;100.00
75438;BME280;64015;49.392;15.582;2023-01-05T01:02:05;95571.88;;;7.48;100.00
75438;BME280;64015;49.392;15.582;2023-01-05T01:04:32;95563.41;;;7.41;100.00
75438;BME280;64015;49.392;15.582;2023-01-05T01:06:58;95568.66;;;7.41;100.00
75438;BME280;64015;49.392;15.582;2023-01-05T01:09:24;95583.34;;;7.37;100.00
75438;BME280;64015;49.392;15.582;2023-01-05T01:11:49;95582.63;;;7.47;100.00
75438;BME280;64015;49.392;15.582;2023-01-05T01:14:15;95557.72;;;7.49;100.00
75438;BME280;64015;49.392;15.582;2023-01-05T01:16:41;95563.50;;;7.52;100.00
75438;BME280;64015;49.392;15.582;2023-01-05T01:19:18;95538.56;;;7.54;100.00
75438;BME280;64015;49.392;15.582;2023-01-05T01:21:44;95562.44;;;7.47;100.00
75438;BME280;64015;49.392;15.582;2023-01-05T01:24:24;95555.13;;;7.55;100.00
75438;BME280;64015;49.392;15.582;2023-01-05T01:26:52;95555.28;;;7.43;100.00
75438;BME280;64015;49.392;15.582;2023-01-05T01:29:20;95539.84;;;7.46;100.00
75438;BME280;64015;49.392;15.582;2023-01-05T01:31:46;95553.78;;;7.52;100.00
75438;BME280;64015;49.392;15.582;2023-01-05T01:34:13;95510.16;;;7.41;100.00
75438;BME280;64015;49.392;15.582;2023-01-05T01:36:38;95523.88;;;7.53;100.00
75438;BME280;64015;49.392;15.582;2023-01-05T01:39:04;95529.91;;;7.54;100.00
75438;BME280;64015;49.392;15.582;2023-01-05T01:41:48;95518.13;;;7.56;100.00
75438;BME280;64015;49.392;15.582;2023-01-05T01:49:47;95531.53;;;7.60;100.00
75438;BME280;64015;49.392;15.582;2023-01-05T01:52:13;95548.66;;;7.67;100.00
75438;BME280;64015;49.392;15.582;2023-01-05T01:54:39;95522.69;;;7.76;100.00
75438;BME280;64015;49.392;15.582;2023-01-05T01:57:05;95507.94;;;7.70;100.00
75438;BME280;64015;49.392;15.582;2023-01-05T01:59:33;95515.69;;;7.92;98.77
75438;BME280;64015;49.392;15.582;2023-01-05T02:02:00;95539.13;;;8.03;96.78
75438;BME280;64015;49.392;15.582;2023-01-05T02:04:26;95512.06;;;8.03;96.11
75438;BME280;64015;49.392;15.582;2023-01-05T02:06:53;95533.91;;;8.18;95.39
75438;BME280;64015;49.392;15.582;2023-01-05T02:09:20;95515.00;;;8.21;94.65
75438;BME280;64015;49.392;15.582;2023-01-05T02:12:13;95499.50;;;8.25;93.95
75438;BME280;64015;49.392;15.582;2023-01-05T02:17:38;95518.66;;;8.10;97.97
75438;BME280;64015;49.392;15.582;2023-01-05T02:28:42;95533.53;;;7.90;100.00
75438;BME280;64015;49.392;15.582;2023-01-05T02:34:19;95517.94;;;7.68;100.00
75438;BME280;64015;49.392;15.582;2023-01-05T02:36:52;95506.91;;;7.66;100.00
75438;BME280;64015;49.392;15.582;2023-01-05T02:42:16;95513.78;;;7.77;100.00
75438;BME280;64015;49.392;15.582;2023-01-05T02:44:44;95496.72;;;7.79;100.00
75438;BME280;64015;49.392;15.582;2023-01-05T02:50:22;95496.88;;;7.63;100.00
75438;BME280;64015;49.392;15.582;2023-01-05T02:53:09;95499.28;;;7.64;100.00
75438;BME280;64015;49.392;15.582;2023-01-05T02:55:40;95514.22;;;7.64;100.00
75438;BME280;64015;49.392;15.582;2023-01-05T02:58:16;95487.47;;;7.67;100.00
75438;BME280;64015;49.392;15.582;2023-01-05T03:00:51;95490.09;;;7.67;100.00
75438;BME280;64015;49.392;15.582;2023-01-05T03:03:30;95513.69;;;7.62;100.00
75438;BME280;64015;49.392;15.582;2023-01-05T03:06:02;95498.19;;;7.60;100.00
75438;BME280;64015;49.392;15.582;2023-01-05T03:08:32;95485.28;;;7.48;100.00
75438;BME280;64015;49.392;15.582;2023-01-05T03:11:03;95496.28;;;7.45;100.00
75438;BME280;64015;49.392;15.582;2023-01-05T03:14:11;95500.19;;;7.43;100.00
75438;BME280;64015;49.392;15.582;2023-01-05T03:16:38;95493.34;;;7.37;100.00
75438;BME280;64015;49.392;15.582;2023-01-05T03:19:11;95491.00;;;7.40;100.00
75438;BME280;64015;49.392;15.582;2023-01-05T03:21:57;95499.69;;;7.41;100.00
75438;BME280;64015;49.392;15.582;2023-01-05T03:24:43;95501.50;;;7.40;100.00
75438;BME280;64015;49.392;15.582;2023-01-05T03:27:28;95516.97;;;7.42;100.00
75438;BME280;64015;49.392;15.582;2023-01-05T03:30:14;95513.25;;;7.33;100.00
75438;BME280;64015;49.392;15.582;2023-01-05T03:33:07;95517.38;;;7.24;100.00
75438;BME280;64015;49.392;15.582;2023-01-05T03:35:55;95513.38;;;7.16;100.00
75438;BME280;64015;49.392;15.582;2023-01-05T03:38:39;95514.44;;;7.15;100.00
75438;BME280;64015;49.392;15.582;2023-01-05T03:41:07;95484.00;;;7.14;100.00
75438;BME280;64015;49.392;15.582;2023-01-05T03:43:37;95495.28;;;7.15;100.00
75438;BME280;64015;49.392;15.582;2023-01-05T03:46:32;95494.00;;;7.17;100.00
75438;BME280;64015;49.392;15.582;2023-01-05T03:48:58;95507.41;;;7.21;100.00
75438;BME280;64015;49.392;15.582;2023-01-05T03:51:24;95504.25;;;7.24;100.00
75438;BME280;64015;49.392;15.582;2023-01-05T03:53:49;95489.03;;;7.21;100.00
75438;BME280;64015;49.392;15.582;2023-01-05T03:56:15;95486.91;;;7.13;100.00
75438;BME280;64015;49.392;15.582;2023-01-05T03:58:40;95473.78;;;7.13;100.00
75438;BME280;64015;49.392;15.582;2023-01-05T04:01:06;95487.28;;;7.31;100.00
75438;BME280;64015;49.392;15.582;2023-01-05T04:03:32;95481.75;;;7.33;100.00
75438;BME280;64015;49.392;15.582;2023-01-05T04:05:59;95482.41;;;7.50;100.00
75438;BME280;64015;49.392;15.582;2023-01-05T04:08:24;95480.56;;;7.51;100.00
75438;BME280;64015;49.392;15.582;2023-01-05T04:10:51;95475.81;;;7.47;100.00
75438;BME280;64015;49.392;15.582;2023-01-05T04:13:18;95472.13;;;7.43;100.00
75438;BME280;64015;49.392;15.582;2023-01-05T04:15:44;95467.88;;;7.37;100.00
75438;BME280;64015;49.392;15.582;2023-01-05T04:18:09;95449.53;;;7.37;100.00
75438;BME280;64015;49.392;15.582;2023-01-05T04:20:35;95455.00;;;7.31;100.00
75438;BME280;64015;49.392;15.582;2023-01-05T04:23:01;95445.31;;;7.36;100.00
75438;BME280;64015;49.392;15.582;2023-01-05T04:25:26;95430.00;;;7.23;100.00
75438;BME280;64015;49.392;15.582;2023-01-05T04:27:52;95445.25;;;7.21;100.00
75438;BME280;64015;49.392;15.582;2023-01-05T04:30:18;95435.25;;;7.18;100.00
75438;BME280;64015;49.392;15.582;2023-01-05T04:32:43;95437.13;;;7.28;100.00
75438;BME280;64015;49.392;15.582;2023-01-05T04:35:09;95427.69;;;7.27;100.00
75438;BME280;64015;49.392;15.582;2023-01-05T04:37:34;95426.81;;;7.11;100.00
75438;BME280;64015;49.392;15.582;2023-01-05T04:40:00;95437.63;;;7.25;100.00
75438;BME280;64015;49.392;15.582;2023-01-05T04:42:26;95421.03;;;7.14;100.00
75438;BME280;64015;49.392;15.582;2023-01-05T04:44:51;95416.31;;;7.11;100.00
75438;BME280;64015;49.392;15.582;2023-01-05T04:47:17;95416.44;;;7.31;100.00
75438;BME280;64015;49.392;15.582;2023-01-05T04:49:43;95412.72;;;7.22;100.00
75438;BME280;64015;49.392;15.582;2023-01-05T04:52:08;95417.47;;;7.30;100.00
75438;BME280;64015;49.392;15.582;2023-01-05T04:54:34;95406.94;;;7.20;100.00
75438;BME280;64015;49.392;15.582;2023-01-05T04:57:00;95399.84;;;7.21;100.00
75438;BME280;64015;49.392;15.582;2023-01-05T04:59:26;95405.31;;;7.14;100.00
75438;BME280;64015;49.392;15.582;2023-01-05T05:01:51;95404.03;;;7.17;100.00
75438;BME280;64015;49.392;15.582;2023-01-05T05:04:17;95389.53;;;7.04;100.00
75438;BME280;64015;49.392;15.582;2023-01-05T05:06:42;95395.53;;;7.04;100.00
75438;BME280;64015;49.392;15.582;2023-01-05T05:09:08;95406.09;;;7.09;100.00
75438;BME280;64015;49.392;15.582;2023-01-05T05:11:34;95402.09;;;7.02;100.00
75438;BME280;64015;49.392;15.582;2023-01-05T05:13:59;95398.94;;;7.00;100.00
75438;BME280;64015;49.392;15.582;2023-01-05T05:16:25;95397.91;;;7.01;100.00
75438;BME280;64015;49.392;15.582;2023-01-05T05:18:51;95404.66;;;6.92;100.00
75438;BME280;64015;49.392;15.582;2023-01-05T05:21:16;95402.84;;;6.92;100.00
75438;BME280;64015;49.392;15.582;2023-01-05T05:23:42;95395.50;;;6.94;100.00
75438;BME280;64015;49.392;15.582;2023-01-05T05:26:07;95408.88;;;6.93;100.00
75438;BME280;64015;49.392;15.582;2023-01-05T05:28:33;95409.13;;;6.96;100.00
75438;BME280;64015;49.392;15.582;2023-01-05T05:30:59;95414.13;;;6.93;100.00
75438;BME280;64015;49.392;15.582;2023-01-05T05:33:25;95416.41;;;6.84;100.00
75438;BME280;64015;49.392;15.582;2023-01-05T05:35:51;95421.59;;;6.79;100.00
75438;BME280;64015;49.392;15.582;2023-01-05T05:38:17;95436.66;;;6.94;100.00
75438;BME280;64015;49.392;15.582;2023-01-05T05:40:42;95421.97;;;6.93;100.00
75438;BME280;64015;49.392;15.582;2023-01-05T05:43:10;95433.25;;;6.93;100.00
75438;BME280;64015;49.392;15.582;2023-01-05T05:45:35;95426.50;;;7.02;100.00
75438;BME280;64015;49.392;15.582;2023-01-05T05:48:01;95435.72;;;7.10;100.00
75438;BME280;64015;49.392;15.582;2023-01-05T05:50:27;95429.47;;;7.16;100.00
75438;BME280;64015;49.392;15.582;2023-01-05T05:52:53;95440.00;;;7.26;100.00
75438;BME280;64015;49.392;15.582;2023-01-05T05:55:18;95423.53;;;7.31;100.00
75438;BME280;64015;49.392;15.582;2023-01-05T05:57:44;95417.25;;;7.42;100.00
75438;BME280;64015;49.392;15.582;2023-01-05T06:00:10;95435.44;;;7.54;100.00
75438;BME280;64015;49.392;15.582;2023-01-05T06:02:36;95449.34;;;7.54;100.00
75438;BME280;64015;49.392;15.582;2023-01-05T06:05:02;95430.44;;;7.52;100.00
75438;BME280;64015;49.392;15.582;2023-01-05T06:07:28;95432.84;;;7.59;100.00
75438;BME280;64015;49.392;15.582;2023-01-05T06:09:53;95424.38;;;7.52;100.00
75438;BME280;64015;49.392;15.582;2023-01-05T06:12:19;95422.03;;;7.50;100.00
75438;BME280;64015;49.392;15.582;2023-01-05T06:14:44;95435.91;;;7.45;100.00
75438;BME280;64015;49.392;15.582;2023-01-05T06:17:10;95438.03;;;7.48;100.00
75438;BME280;64015;49.392;15.582;2023-01-05T06:19:35;95439.09;;;7.47;100.00
75438;BME280;64015;49.392;15.582;2023-01-05T06:22:01;95442.50;;;7.48;100.00
75438;BME280;64015;49.392;15.582;2023-01-05T06:24:26;95449.53;;;7.42;100.00
75438;BME280;64015;49.392;15.582;2023-01-05T06:26:52;95437.44;;;7.36;100.00
75438;BME280;64015;49.392;15.582;2023-01-05T06:29:18;95442.22;;;7.44;100.00
75438;BME280;64015;49.392;15.582;2023-01-05T06:31:44;95439.03;;;7.42;100.00
75438;BME280;64015;49.392;15.582;2023-01-05T06:34:09;95447.97;;;7.41;100.00
75438;BME280;64015;49.392;15.582;2023-01-05T06:36:35;95442.72;;;7.41;100.00
75438;BME280;64015;49.392;15.582;2023-01-05T06:39:00;95444.88;;;7.49;100.00
75438;BME280;64015;49.392;15.582;2023-01-05T06:41:27;95447.97;;;7.41;100.00
75438;BME280;64015;49.392;15.582;2023-01-05T06:43:53;95434.88;;;7.46;100.00
75438;BME280;64015;49.392;15.582;2023-01-05T06:46:19;95449.59;;;7.47;100.00
75438;BME280;64015;49.392;15.582;2023-01-05T06:48:44;95449.34;;;7.49;100.00
75438;BME280;64015;49.392;15.582;2023-01-05T06:51:10;95446.97;;;7.47;100.00
75438;BME280;64015;49.392;15.582;2023-01-05T06:53:36;95453.56;;;7.60;100.00
75438;BME280;64015;49.392;15.582;2023-01-05T06:56:01;95448.59;;;7.59;100.00
75438;BME280;64015;49.392;15.582;2023-01-05T06:58:27;95450.91;;;7.50;100.00
75438;BME280;64015;49.392;15.582;2023-01-05T07:00:53;95444.09;;;7.54;100.00
75438;BME280;64015;49.392;15.582;2023-01-05T07:03:19;95458.50;;;7.52;100.00
75438;BME280;64015;49.392;15.582;2023-01-05T07:05:44;95470.16;;;7.66;100.00
75438;BME280;64015;49.392;15.582;2023-01-05T07:08:10;95451.78;;;7.71;100.00
75438;BME280;64015;49.392;15.582;2023-01-05T07:10:36;95502.19;;;7.73;100.00
75438;BME280;64015;49.392;15.582;2023-01-05T07:13:01;95501.41;;;7.67;100.00
75438;BME280;64015;49.392;15.582;2023-01-05T07:15:27;95515.25;;;7.58;100.00
75438;BME280;64015;49.392;15.582;2023-01-05T07:17:52;95512.94;;;7.66;100.00
75438;BME280;64015;49.392;15.582;2023-01-05T07:20:18;95492.94;;;7.60;100.00
75438;BME280;64015;49.392;15.582;2023-01-05T07:22:43;95491.09;;;7.56;100.00
75438;BME280;64015;49.392;15.582;2023-01-05T07:25:09;95490.03;;;7.57;100.00
75438;BME280;64015;49.392;15.582;2023-01-05T07:27:35;95488.91;;;7.42;100.00
75438;BME280;64015;49.392;15.582;2023-01-05T07:30:01;95508.34;;;7.46;100.00
75438;BME280;64015;49.392;15.582;2023-01-05T07:32:27;95502.06;;;7.47;100.00
75438;BME280;64015;49.392;15.582;2023-01-05T07:34:52;95546.44;;;7.54;100.00
75438;BME280;64015;49.392;15.582;2023-01-05T07:37:18;95488.97;;;7.53;100.00
75438;BME280;64015;49.392;15.582;2023-01-05T07:39:44;95478.63;;;7.36;100.00
75438;BME280;64015;49.392;15.582;2023-01-05T07:42:09;95491.53;;;7.42;100.00
75438;BME280;64015;49.392;15.582;2023-01-05T07:44:35;95494.16;;;7.42;100.00
75438;BME280;64015;49.392;15.582;2023-01-05T07:47:02;95498.66;;;7.47;100.00
75438;BME280;64015;49.392;15.582;2023-01-05T07:49:27;95498.94;;;7.51;100.00
75438;BME280;64015;49.392;15.582;2023-01-05T07:51:53;95497.56;;;7.43;100.00
75438;BME280;64015;49.392;15.582;2023-01-05T07:54:19;95502.06;;;7.47;100.00
75438;BME280;64015;49.392;15.582;2023-01-05T07:56:46;95502.31;;;7.46;100.00
75438;BME280;64015;49.392;15.582;2023-01-05T07:59:11;95493.16;;;7.54;100.00
75438;BME280;64015;49.392;15.582;2023-01-05T08:01:37;95493.41;;;7.52;100.00
75438;BME280;64015;49.392;15.582;2023-01-05T08:04:03;95482.13;;;7.52;100.00
75438;BME280;64015;49.392;15.582;2023-01-05T08:06:28;95489.78;;;7.58;100.00
75438;BME280;64015;49.392;15.582;2023-01-05T08:08:55;95503.41;;;7.55;100.00
75438;BME280;64015;49.392;15.582;2023-01-05T08:11:20;95505.00;;;7.61;100.00
75438;BME280;64015;49.392;15.582;2023-01-05T08:13:47;95515.25;;;7.58;100.00
75438;BME280;64015;49.392;15.582;2023-01-05T08:16:29;95524.16;;;7.57;100.00
75438;BME280;64015;49.392;15.582;2023-01-05T08:18:56;95515.75;;;7.55;100.00
75438;BME280;64015;49.392;15.582;2023-01-05T08:21:22;95532.28;;;7.55;100.00
75438;BME280;64015;49.392;15.582;2023-01-05T08:23:47;95536.78;;;7.60;100.00
75438;BME280;64015;49.392;15.582;2023-01-05T08:26:17;95543.09;;;7.59;100.00
75438;BME280;64015;49.392;15.582;2023-01-05T08:28:43;95544.44;;;7.66;100.00
75438;BME280;64015;49.392;15.582;2023-01-05T08:31:21;95529.69;;;7.60;100.00
75438;BME280;64015;49.392;15.582;2023-01-05T08:33:47;95544.69;;;7.65;100.00
75438;BME280;64015;49.392;15.582;2023-01-05T08:36:17;95538.91;;;7.63;100.00
75438;BME280;64015;49.392;15.582;2023-01-05T08:38:50;95545.16;;;7.57;100.00
75438;BME280;64015;49.392;15.582;2023-01-05T08:41:25;95556.72;;;7.61;100.00
75438;BME280;64015;49.392;15.582;2023-01-05T08:43:55;95533.38;;;7.59;99.42
75438;BME280;64015;49.392;15.582;2023-01-05T08:46:23;95544.38;;;7.56;99.97
75438;BME280;64015;49.392;15.582;2023-01-05T08:48:51;95557.44;;;7.51;99.31
75438;BME280;64015;49.392;15.582;2023-01-05T08:51:17;95566.34;;;7.45;99.29
75438;BME280;64015;49.392;15.582;2023-01-05T08:53:44;95571.63;;;7.50;98.84
75438;BME280;64015;49.392;15.582;2023-01-05T08:56:10;95562.44;;;7.47;98.18
75438;BME280;64015;49.392;15.582;2023-01-05T08:58:37;95573.78;;;7.58;97.58
75438;BME280;64015;49.392;15.582;2023-01-05T09:01:07;95573.50;;;7.55;97.22
75438;BME280;64015;49.392;15.582;2023-01-05T09:03:33;95569.84;;;7.61;96.52
75438;BME280;64015;49.392;15.582;2023-01-05T09:05:58;95560.13;;;7.56;96.21
75438;BME280;64015;49.392;15.582;2023-01-05T09:08:29;95571.44;;;7.62;95.88
75438;BME280;64015;49.392;15.582;2023-01-05T09:11:04;95574.09;;;7.67;94.60
75438;BME280;64015;49.392;15.582;2023-01-05T09:13:30;95593.84;;;7.74;94.89
75438;BME280;64015;49.392;15.582;2023-01-05T09:15:55;95575.97;;;7.71;94.54
75438;BME280;64015;49.392;15.582;2023-01-05T09:21:06;95583.28;;;7.64;94.98
75438;BME280;64015;49.392;15.582;2023-01-05T09:23:32;95583.19;;;7.54;95.45
75438;BME280;64015;49.392;15.582;2023-01-05T09:25:58;95594.00;;;7.58;95.21
75438;BME280;64015;49.392;15.582;2023-01-05T09:28:24;95596.56;;;7.53;94.46
75438;BME280;64015;49.392;15.582;2023-01-05T09:30:50;95600.63;;;8.17;90.85
75438;BME280;64015;49.392;15.582;2023-01-05T09:33:15;95606.81;;;8.33;89.57
75438;BME280;64015;49.392;15.582;2023-01-05T09:35:41;95597.84;;;8.34;88.31
75438;BME280;64015;49.392;15.582;2023-01-05T09:38:07;95601.72;;;8.27;88.71
75438;BME280;64015;49.392;15.582;2023-01-05T09:40:37;95621.66;;;8.12;88.25
75438;BME280;64015;49.392;15.582;2023-01-05T09:43:05;95615.84;;;8.05;89.44
75438;BME280;64015;49.392;15.582;2023-01-05T09:45:30;95618.09;;;7.92;89.79
75438;BME280;64015;49.392;15.582;2023-01-05T09:47:58;95615.09;;;8.15;86.44
75438;BME280;64015;49.392;15.582;2023-01-05T09:50:26;95620.72;;;9.31;81.73
75438;BME280;64015;49.392;15.582;2023-01-05T09:52:56;95607.97;;;10.40;73.96
75438;BME280;64015;49.392;15.582;2023-01-05T09:55:25;95618.53;;;10.30;73.18
75438;BME280;64015;49.392;15.582;2023-01-05T09:58:13;95624.66;;;9.90;73.27
75438;BME280;64015;49.392;15.582;2023-01-05T10:00:43;95629.44;;;9.72;75.87
75438;BME280;64015;49.392;15.582;2023-01-05T10:03:17;95616.72;;;10.15;73.04
75438;BME280;64015;49.392;15.582;2023-01-05T10:05:45;95629.13;;;10.09;73.63
75438;BME280;64015;49.392;15.582;2023-01-05T10:08:24;95617.56;;;9.75;74.62
75438;BME280;64015;49.392;15.582;2023-01-05T10:11:00;95619.41;;;9.59;76.42
75438;BME280;64015;49.392;15.582;2023-01-05T10:13:56;95624.16;;;9.42;76.67
75438;BME280;64015;49.392;15.582;2023-01-05T10:16:27;95614.13;;;9.29;79.22
75438;BME280;64015;49.392;15.582;2023-01-05T10:18:54;95594.13;;;9.23;78.75
75438;BME280;64015;49.392;15.582;2023-01-05T10:26:33;95621.91;;;8.73;82.04
75438;BME280;64015;49.392;15.582;2023-01-05T10:29:10;95628.72;;;8.64;82.77
75438;BME280;64015;49.392;15.582;2023-01-05T10:34:48;95623.72;;;8.52;83.36
75438;BME280;64015;49.392;15.582;2023-01-05T10:37:32;95634.44;;;8.46;82.75
75438;BME280;64015;49.392;15.582;2023-01-05T10:43:31;95632.41;;;8.63;81.84
75438;BME280;64015;49.392;15.582;2023-01-05T10:46:03;95633.91;;;8.44;82.89
75438;BME280;64015;49.392;15.582;2023-01-05T10:48:33;95624.47;;;8.48;81.08
75438;BME280;64015;49.392;15.582;2023-01-05T10:51:01;95625.06;;;8.60;81.30
75438;BME280;64015;49.392;15.582;2023-01-05T10:53:28;95645.53;;;8.58;80.05
75438;BME280;64015;49.392;15.582;2023-01-05T10:58:22;95635.53;;;8.55;78.39
75438;BME280;64015;49.392;15.582;2023-01-05T11:00:49;95620.13;;;8.79;77.41
75438;BME280;64015;49.392;15.582;2023-01-05T11:03:17;95619.69;;;9.63;73.13
75438;BME280;64015;49.392;15.582;2023-01-05T11:05:47;95638.25;;;10.53;67.92
75438;BME280;64015;49.392;15.582;2023-01-05T11:08:16;95607.38;;;11.46;64.15
75438;BME280;64015;49.392;15.582;2023-01-05T11:11:03;95617.94;;;11.07;64.22
75438;BME280;64015;49.392;15.582;2023-01-05T11:13:41;95622.53;;;10.02;68.60
75438;BME280;64015;49.392;15.582;2023-01-05T11:26:23;95619.31;;;11.00;64.01
75438;BME280;64015;49.392;15.582;2023-01-05T11:29:00;95608.69;;;11.83;60.50
75438;BME280;64015;49.392;15.582;2023-01-05T11:34:14;95619.91;;;11.99;60.39
75438;BME280;64015;49.392;15.582;2023-01-05T11:36:42;95619.34;;;12.25;59.04
75438;BME280;64015;49.392;15.582;2023-01-05T11:39:24;95606.69;;;11.65;60.48
75438;BME280;64015;49.392;15.582;2023-01-05T11:42:03;95623.31;;;10.92;63.78
75438;BME280;64015;49.392;15.582;2023-01-05T11:44:29;95635.88;;;11.10;63.93
75438;BME280;64015;49.392;15.582;2023-01-05T11:46:56;95630.22;;;10.83;64.61
75438;BME280;64015;49.392;15.582;2023-01-05T11:49:22;95638.31;;;10.32;67.28
75438;BME280;64015;49.392;15.582;2023-01-05T11:51:48;95648.31;;;10.30;67.79
75438;BME280;64015;49.392;15.582;2023-01-05T11:54:43;95639.72;;;10.84;65.35
75438;BME280;64015;49.392;15.582;2023-01-05T11:57:14;95649.09;;;10.46;65.89
75438;BME280;64015;49.392;15.582;2023-01-05T11:59:40;95643.31;;;10.14;68.99
75438;BME280;64015;49.392;15.582;2023-01-05T12:05:01;95654.19;;;9.51;71.38
75438;BME280;64015;49.392;15.582;2023-01-05T12:07:35;95669.19;;;9.41;70.79
75438;BME280;64015;49.392;15.582;2023-01-05T12:12:48;95668.88;;;9.27;73.55
75438;BME280;64015;49.392;15.582;2023-01-05T12:23:56;95667.53;;;9.09;74.44
75438;BME280;64015;49.392;15.582;2023-01-05T12:26:22;95652.81;;;9.13;74.32
75438;BME280;64015;49.392;15.582;2023-01-05T12:37:47;95660.97;;;9.22;72.74
75438;BME280;64015;49.392;15.582;2023-01-05T12:43:08;95670.97;;;9.15;72.51
75438;BME280;64015;49.392;15.582;2023-01-05T12:48:14;95652.06;;;9.48;71.35
75438;BME280;64015;49.392;15.582;2023-01-05T12:50:46;95648.38;;;9.74;69.77
75438;BME280;64015;49.392;15.582;2023-01-05T12:56:25;95672.59;;;10.02;69.67
75438;BME280;64015;49.392;15.582;2023-01-05T12:59:31;95662.06;;;9.87;69.58
75438;BME280;64015;49.392;15.582;2023-01-05T13:02:18;95689.97;;;9.47;70.88
75438;BME280;64015;49.392;15.582;2023-01-05T13:04:51;95663.63;;;9.37;72.34
75438;BME280;64015;49.392;15.582;2023-01-05T13:07:24;95663.66;;;9.57;72.17
75438;BME280;64015;49.392;15.582;2023-01-05T13:09:56;95669.19;;;9.61;71.75
75438;BME280;64015;49.392;15.582;2023-01-05T13:12:23;95655.72;;;10.23;68.23
75438;BME280;64015;49.392;15.582;2023-01-05T13:15:08;95668.38;;;10.01;70.52
75438;BME280;64015;49.392;15.582;2023-01-05T13:17:43;95680.00;;;9.85;72.24
75438;BME280;64015;49.392;15.582;2023-01-05T13:20:39;95716.53;;;9.30;74.92
75438;BME280;64015;49.392;15.582;2023-01-05T13:23:17;95681.50;;;9.15;76.35
75438;BME280;64015;49.392;15.582;2023-01-05T13:25:55;95689.31;;;8.89;77.79
75438;BME280;64015;49.392;15.582;2023-01-05T13:28:23;95681.41;;;8.84;78.53
75438;BME280;64015;49.392;15.582;2023-01-05T13:31:15;95708.69;;;8.68;80.25
75438;BME280;64015;49.392;15.582;2023-01-05T13:42:38;95702.19;;;7.65;97.55
75438;BME280;64015;49.392;15.582;2023-01-05T13:45:19;95702.69;;;7.62;96.33
75438;BME280;64015;49.392;15.582;2023-01-05T13:48:06;95702.34;;;7.53;95.63
75438;BME280;64015;49.392;15.582;2023-01-05T13:50:49;95693.91;;;7.78;93.06
75438;BME280;64015;49.392;15.582;2023-01-05T13:53:22;95731.22;;;8.54;86.34
75438;BME280;64015;49.392;15.582;2023-01-05T13:55:54;95687.19;;;8.86;84.93
75438;BME280;64015;49.392;15.582;2023-01-05T14:00:59;95683.13;;;9.46;78.95
75438;BME280;64015;49.392;15.582;2023-01-05T14:03:38;95693.66;;;9.41;79.03
75438;BME280;64015;49.392;15.582;2023-01-05T14:06:19;95695.34;;;8.85;83.03
75438;BME280;64015;49.392;15.582;2023-01-05T14:08:53;95698.63;;;8.55;83.64
75438;BME280;64015;49.392;15.582;2023-01-05T14:11:25;95688.19;;;8.28;85.16
75438;BME280;64015;49.392;15.582;2023-01-05T14:14:00;95688.97;;;8.23;85.21
75438;BME280;64015;49.392;15.582;2023-01-05T14:19:13;95720.78;;;7.90;87.03
75438;BME280;64015;49.392;15.582;2023-01-05T14:24:47;95715.50;;;7.85;87.67
75438;BME280;64015;49.392;15.582;2023-01-05T14:27:14;95694.78;;;7.57;88.47
75438;BME280;64015;49.392;15.582;2023-01-05T14:32:34;95737.56;;;7.57;88.38
75438;BME280;64015;49.392;15.582;2023-01-05T14:37:56;95724.03;;;7.43;88.93
75438;BME280;64015;49.392;15.582;2023-01-05T14:43:05;95717.63;;;7.29;89.46
75438;BME280;64015;49.392;15.582;2023-01-05T14:45:33;95747.06;;;7.36;88.08
75438;BME280;64015;49.392;15.582;2023-01-05T14:48:04;95731.78;;;7.28;88.81
75438;BME280;64015;49.392;15.582;2023-01-05T14:50:43;95706.72;;;7.16;89.53
75438;BME280;64015;49.392;15.582;2023-01-05T14:53:13;95749.31;;;7.23;89.84
75438;BME280;64015;49.392;15.582;2023-01-05T15:14:53;95744.22;;;7.16;89.64
75438;BME280;64015;49.392;15.582;2023-01-05T15:18:26;95737.03;;;7.06;89.75
75438;BME280;64015;49.392;15.582;2023-01-05T15:31:48;95762.34;;;6.96;90.10